Impacts METAR Board INFO
IDs:

KSLC - Salt Lake City Intl, UT, US

Updated at: 0035 UTC 14 Dec 2017
Potential Impact None Slight Moderate High
Time13/12Z 13/13Z 13/14Z 13/15Z 13/16Z 13/17Z 13/18Z 13/19Z 13/20Z 13/21Z 13/22Z 13/23Z 14/00Z
VIS0.5 2 2 2 0.5 1.5 1.5 2.5 2 2 2 2 2
CIG2 5 4 5 6 6 7 9 60 8 95 50 80
CoverOVXOVCOVCOVCOVCOVCOVCOVCBKNBKNOVCOVCOVC
FltCatLIFRIFRLIFRIFRLIFRIFRIFRIFRIFRIFRIFRIFRIFR
WX-SN FZFG-SN BRBR-SN BR-SN BRBRBR-SN BRBRBRBRBRHZ
WDir1200020002500320035001100
WSpd3 0 0 3 0 4 0 4 0 5 0 4 0
WGst-- -- -- -- -- -- -- -- -- -- -- -- --
Raw hourly METARs
KSLC 131154Z 12003KT 1/2SM R16L/2200V2600FT -SN FZFG VV002 M04/M05 A3038 RMK AO2 SNB54 SLP315 P0000 60000 70001 I1001 I6002 T10441050 11039 21050 58003 VISNO NW RNWY $
KSLC 131254Z 00000KT 2SM -SN BR OVC005 M05/M06 A3037 RMK AO2 SNE05B46 SLP311 P0000 T10501056 VISNO NW RNWY $
KSLC 131354Z 00000KT 2SM BR OVC004 M05/M06 A3036 RMK AO2 SFC VIS 2 1/2 SNE09 SLP312 P0000 T10501056 VISNO NW RNWY $
KSLC 131454Z 20003KT 2SM -SN BR OVC005 M05/M06 A3036 RMK AO2 SFC VIS 2 1/2 SNB50 SLP312 P0000 60000 T10501056 55004 VISNO NW RNWY
KSLC 131554Z 00000KT 1/2SM R16L/P6000FT -SN BR OVC006 M05/M06 A3037 RMK AO2 SFC VIS 3/4 SLP314 P0000 T10501061 VISNO NW RNWY
KSLC 131654Z 25004KT 1 1/2SM R16L/4500VP6000FT BR OVC006 M05/M06 A3036 RMK AO2 SFC VIS 3 SNE16 SLP313 P0000 T10501061 VISNO NW RNWY
KSLC 131754Z 00000KT 1 1/2SM BR OVC007 M05/M06 A3035 RMK AO2 SFC VIS 3 SLP306 60000 T10501061 11044 21056 58005 VISNO NW RNWY
KSLC 131854Z 32004KT 2 1/2SM -SN BR OVC009 M04/M06 A3032 RMK AO2 SFC VIS 3 SNB50 SLP295 P0000 T10391056 VISNO NW RNWY
KSLC 131958Z 00000KT 2SM BR SCT008 BKN060 M03/M05 A3027 RMK AO2 SFC VIS 4 T10331050 VISNO NW RNWY
KSLC 132054Z 35005KT 2SM BR BKN008 BKN050 M02/M04 A3027 RMK AO2 SFC VIS 3 SLP275 60000 T10221044 56023 VISNO NW RNWY
KSLC 132154Z 00000KT 2SM BR SCT007 BKN095 OVC110 M02/M04 A3025 RMK AO2 SFC VIS 4 SLP269 T10221039 VISNO NW RNWY $
KSLC 132254Z 11004KT 2SM BR SCT008 BKN050 OVC090 M02/M04 A3024 RMK AO2 SFC VIS 4 SLP265 T10221039 $
KSLC 132354Z 00000KT 2SM HZ FEW008 OVC080 M01/M04 A3020 RMK AO2 SFC VIS 3 SLP250 60000 T10111039 11011 21050 58013